< < Back
Terminal Aerodrome Forecast


Current Version              Previous Versions:   1  2  3  4  5  6  7  8  9  

Terminal Aerodrome Forecast

492
FTUS44 KMOB 191700
TAFPNS
TAF
KPNS 191725Z 1918/2018 04003KT P6SM SCT070 BKN250
     FM192000 14010KT P6SM VCTS SCT040CB
     FM200100 09006KT P6SM FEW040
     FM201500 06008KT P6SM SCT040=



Latest METAR

033
SAUS70 KWBC 201000
MTRPNS
METAR KPNS 200953Z AUTO 05007KT 10SM CLR 21/19 A2996 RMK AO2 SLP147
T02060189


USA.gov is the U.S. government's official web portal to all federal, state and local government web resources and services.